Dominion City, Canada
Current Conditions -  °F | °C
As of 6:13 AM on Friday 21 Nov 2014 (Local Time) from KHCO Reporting Station
Clear Clear  
Wind Chill: -1°   Ceiling: Unl
Heat Index: 16°   Visibility: 10mi
Dew Point:   Wind: 18mph
Humidity: 73%   Direction: 180°S
Pressure: 29.81"   Gusts: NA
Location:  49.13°N, 97.15°W
Report Text: KHCO 211213Z AUTO 18016KT 10SM CLR M09/M13 A2981 RMK AO2
Loading
Personal Weather Stations






























Interactive Weather Map New forecast layout! Learn more

10-Day Weather Forecast

Advertisements
Track Severe Weather on mobile